createdAt,value
2023-07-29T00:00:00.609Z,90.31
2023-07-29T00:02:03.949Z,90.66
2023-07-29T00:04:07.136Z,90.58
2023-07-29T00:06:11.822Z,90.96
2023-07-29T00:08:16.237Z,90.93
2023-07-29T00:10:19.285Z,91.22
2023-07-29T00:12:22.507Z,91.25
2023-07-29T00:14:25.625Z,91.57
2023-07-29T00:16:28.723Z,91.75
2023-07-29T00:18:32.304Z,91.98
2023-07-29T00:20:35.389Z,91.66
2023-07-29T00:22:37.502Z,92.05
2023-07-29T00:24:42.675Z,92.29
2023-07-29T00:26:45.768Z,92.57
2023-07-29T00:28:48.772Z,92.26
2023-07-29T00:30:51.886Z,92.49
2023-07-29T00:32:58.054Z,92.67
2023-07-29T00:35:02.288Z,92.65
2023-07-29T00:37:07.825Z,92.51
2023-07-29T00:39:10.940Z,92.66
2023-07-29T00:41:16.572Z,92.80
2023-07-29T00:43:19.629Z,92.76
2023-07-29T00:45:23.020Z,93.03
2023-07-29T00:47:27.842Z,92.76
2023-07-29T00:49:31.326Z,93.11
2023-07-29T00:51:34.340Z,93.27
2023-07-29T00:53:37.392Z,93.20
2023-07-29T00:55:40.467Z,93.19
2023-07-29T00:57:49.329Z,93.48
2023-07-29T00:59:52.698Z,93.45
2023-07-29T01:01:57.138Z,93.09
2023-07-29T01:04:00.001Z,93.39
2023-07-29T01:06:14.765Z,93.18
2023-07-29T01:08:31.195Z,93.16
2023-07-29T01:10:45.650Z,93.47
2023-07-29T01:12:59.048Z,93.51
2023-07-29T01:15:11.293Z,93.37
2023-07-29T01:17:21.158Z,93.50
2023-07-29T01:19:52.072Z,93.77
2023-07-29T01:21:55.132Z,93.51
2023-07-29T01:24:01.716Z,93.53
2023-07-29T01:26:05.772Z,93.55
2023-07-29T01:28:10.353Z,93.41
2023-07-29T01:30:15.760Z,93.65
2023-07-29T01:32:30.189Z,93.42
2023-07-29T01:34:41.814Z,93.83
2023-07-29T01:36:47.893Z,93.61
2023-07-29T01:38:53.327Z,93.82
2023-07-29T01:40:58.907Z,93.69
2023-07-29T01:43:02.195Z,93.51
2023-07-29T01:45:05.938Z,93.64
2023-07-29T01:47:08.955Z,93.89
2023-07-29T01:49:11.963Z,93.66
2023-07-29T01:51:15.228Z,93.35
2023-07-29T01:53:18.348Z,93.36
2023-07-29T01:55:21.723Z,93.24
2023-07-29T01:57:26.641Z,93.55
2023-07-29T01:59:29.737Z,93.56
2023-07-29T02:01:32.864Z,93.85
2023-07-29T02:03:35.950Z,93.94
2023-07-29T02:05:39.023Z,94.43
2023-07-29T02:07:42.132Z,94.23
2023-07-29T02:09:45.212Z,94.62
2023-07-29T02:11:48.351Z,95.00
2023-07-29T02:13:52.950Z,94.99
2023-07-29T02:15:55.939Z,95.33
2023-07-29T02:18:00.404Z,95.48
2023-07-29T02:20:04.613Z,95.86
2023-07-29T02:22:07.734Z,95.76
2023-07-29T02:24:10.770Z,96.10
2023-07-29T02:26:13.848Z,96.52
2023-07-29T02:28:17.016Z,96.74
2023-07-29T02:30:22.295Z,96.82
2023-07-29T02:32:25.326Z,96.51
2023-07-29T02:34:28.701Z,96.84
2023-07-29T02:36:31.773Z,96.71
2023-07-29T02:38:35.590Z,96.86
2023-07-29T02:40:40.112Z,97.25
2023-07-29T02:42:43.242Z,97.45
2023-07-29T02:44:46.323Z,97.29
2023-07-29T02:46:50.770Z,97.63
2023-07-29T02:48:53.884Z,97.68
2023-07-29T02:50:56.978Z,97.84
2023-07-29T02:53:00.038Z,97.77
2023-07-29T02:55:03.085Z,97.94
2023-07-29T02:57:06.180Z,97.97
2023-07-29T02:59:09.226Z,98.07
2023-07-29T03:01:12.765Z,97.95
2023-07-29T03:03:17.263Z,97.79
2023-07-29T03:05:20.526Z,98.02
2023-07-29T03:07:23.576Z,97.95
2023-07-29T03:09:26.715Z,98.25
2023-07-29T03:11:29.751Z,98.10
2023-07-29T03:13:32.785Z,98.24
2023-07-29T03:15:36.243Z,98.39
2023-07-29T03:17:38.349Z,98.13
2023-07-29T03:19:42.780Z,98.46
2023-07-29T03:21:46.975Z,98.15
2023-07-29T03:23:50.059Z,98.43
2023-07-29T03:25:57.632Z,98.54
2023-07-29T03:27:59.828Z,98.30
2023-07-29T03:30:02.870Z,98.60
2023-07-29T03:32:07.285Z,98.65
2023-07-29T03:34:12.238Z,98.39
2023-07-29T03:36:17.127Z,98.61
2023-07-29T03:38:20.364Z,98.44
2023-07-29T03:40:23.624Z,98.38
2023-07-29T03:42:26.615Z,98.55
2023-07-29T03:44:29.676Z,98.50
2023-07-29T03:46:33.431Z,98.73
2023-07-29T03:48:35.684Z,98.69
2023-07-29T03:50:38.871Z,98.83
2023-07-29T03:52:43.673Z,98.61
2023-07-29T03:54:46.845Z,98.66
2023-07-29T03:56:49.973Z,98.54
2023-07-29T03:58:53.049Z,98.84
2023-07-29T04:00:56.164Z,98.82
2023-07-29T04:02:59.219Z,98.97
2023-07-29T04:05:02.373Z,98.85
2023-07-29T04:07:06.037Z,98.78
2023-07-29T04:09:10.480Z,98.87
2023-07-29T04:11:12.815Z,99.19
2023-07-29T04:13:15.829Z,98.91
2023-07-29T04:15:18.903Z,99.12
2023-07-29T04:17:22.077Z,99.04
2023-07-29T04:19:25.166Z,99.12
2023-07-29T04:21:28.387Z,98.98
2023-07-29T04:23:31.562Z,98.83
2023-07-29T04:25:35.953Z,99.12
2023-07-29T04:27:38.989Z,99.08
2023-07-29T04:29:42.224Z,98.88
2023-07-29T04:31:44.283Z,99.00
2023-07-29T04:33:47.353Z,98.82
2023-07-29T04:35:50.449Z,98.85
2023-07-29T04:37:53.457Z,98.81
2023-07-29T04:39:56.704Z,98.72
2023-07-29T04:42:02.047Z,98.84
2023-07-29T04:44:05.355Z,98.79
2023-07-29T04:46:10.150Z,98.92
2023-07-29T04:48:13.627Z,98.65
2023-07-29T04:50:16.888Z,98.58
2023-07-29T04:52:20.774Z,98.66
2023-07-29T04:54:23.876Z,98.65
2023-07-29T04:56:27.352Z,98.64
2023-07-29T04:58:30.958Z,98.36
2023-07-29T05:00:35.112Z,98.56
2023-07-29T05:02:38.265Z,98.58
2023-07-29T05:04:41.337Z,98.13
2023-07-29T05:06:44.451Z,98.29
2023-07-29T05:08:47.587Z,97.96
2023-07-29T05:10:51.605Z,98.18
2023-07-29T05:12:54.668Z,97.84
2023-07-29T05:14:59.077Z,97.83
2023-07-29T05:17:02.203Z,97.86
2023-07-29T05:19:05.474Z,97.88
2023-07-29T05:21:09.582Z,97.79
2023-07-29T05:23:11.811Z,97.88
2023-07-29T05:25:15.815Z,97.55
2023-07-29T05:27:18.845Z,97.75
2023-07-29T05:29:21.848Z,97.44
2023-07-29T05:31:26.451Z,97.23
2023-07-29T05:33:29.647Z,97.01
2023-07-29T05:35:32.891Z,97.23
2023-07-29T05:37:35.927Z,96.88
2023-07-29T05:39:39.099Z,96.67
2023-07-29T05:41:42.193Z,96.86
2023-07-29T05:43:46.402Z,96.68
2023-07-29T05:45:49.511Z,96.42
2023-07-29T05:47:55.326Z,96.29
2023-07-29T05:49:59.995Z,96.19
2023-07-29T05:52:04.490Z,96.13
2023-07-29T05:54:07.535Z,95.57
2023-07-29T05:56:11.521Z,95.51
2023-07-29T05:58:14.607Z,95.16
2023-07-29T06:00:17.888Z,94.76
2023-07-29T06:02:21.444Z,94.77
2023-07-29T06:04:25.846Z,94.71
2023-07-29T06:06:29.135Z,94.30
2023-07-29T06:08:35.357Z,94.04
2023-07-29T06:10:38.914Z,94.17
2023-07-29T06:12:41.994Z,93.96
2023-07-29T06:14:45.053Z,93.82
2023-07-29T06:16:48.257Z,93.98
2023-07-29T06:18:51.297Z,93.59
2023-07-29T06:20:55.729Z,93.82
2023-07-29T06:22:58.747Z,93.41
2023-07-29T06:25:00.913Z,93.26
2023-07-29T06:27:04.278Z,93.26
2023-07-29T06:29:07.475Z,92.67
2023-07-29T06:31:10.571Z,92.57
2023-07-29T06:33:13.761Z,92.49
2023-07-29T06:35:16.951Z,92.38
2023-07-29T06:37:21.569Z,92.23
2023-07-29T06:39:24.577Z,92.28
2023-07-29T06:41:27.592Z,92.15
2023-07-29T06:43:30.644Z,92.29
2023-07-29T06:45:33.667Z,92.22
2023-07-29T06:47:36.833Z,92.50
2023-07-29T06:49:39.895Z,92.56
2023-07-29T06:51:42.925Z,92.59
2023-07-29T06:53:47.408Z,92.40
2023-07-29T06:59:50.616Z,92.36
2023-07-29T07:01:54.711Z,92.21
2023-07-29T07:03:59.692Z,91.82
2023-07-29T07:06:03.039Z,91.62
2023-07-29T07:08:06.122Z,91.57
2023-07-29T07:10:11.125Z,91.22
2023-07-29T07:12:14.219Z,91.44
2023-07-29T07:14:17.846Z,91.14
2023-07-29T07:16:20.921Z,91.13
2023-07-29T07:18:23.496Z,91.11
2023-07-29T07:20:26.772Z,91.40
2023-07-29T07:22:29.741Z,91.36
2023-07-29T07:24:31.956Z,91.42
2023-07-29T07:26:36.636Z,91.58
2023-07-29T07:28:39.943Z,91.58
2023-07-29T07:30:43.644Z,91.63
2023-07-29T07:32:47.448Z,91.91
2023-07-29T07:34:50.552Z,91.80
2023-07-29T07:36:53.802Z,92.05
2023-07-29T07:38:57.256Z,92.01
2023-07-29T07:41:00.653Z,92.16
2023-07-29T07:43:05.241Z,92.18
2023-07-29T07:45:08.682Z,92.05
2023-07-29T07:47:10.776Z,92.14
2023-07-29T07:49:13.969Z,92.26
2023-07-29T07:51:17.923Z,92.01
2023-07-29T07:53:21.068Z,91.98
2023-07-29T07:55:24.064Z,92.07
2023-07-29T07:57:27.094Z,91.80
2023-07-29T07:59:31.512Z,91.54
2023-07-29T08:01:36.931Z,91.50
2023-07-29T08:03:40.045Z,91.55
2023-07-29T08:05:43.243Z,91.38
2023-07-29T08:07:46.371Z,91.38
2023-07-29T08:09:48.483Z,91.20
2023-07-29T08:11:51.543Z,91.46
2023-07-29T08:13:54.913Z,91.66
2023-07-29T08:15:59.494Z,91.90
2023-07-29T08:18:03.725Z,91.97
2023-07-29T08:20:07.919Z,91.89
2023-07-29T08:22:10.971Z,91.81
2023-07-29T08:24:13.936Z,91.55
2023-07-29T08:26:17.916Z,91.60
2023-07-29T08:28:20.980Z,91.67
2023-07-29T08:30:24.095Z,91.85
2023-07-29T08:32:28.547Z,91.66
2023-07-29T08:34:31.691Z,91.69
2023-07-29T08:36:35.114Z,91.87
2023-07-29T08:38:38.481Z,91.79
2023-07-29T08:40:47.333Z,91.96
2023-07-29T08:42:51.593Z,92.04
2023-07-29T08:44:56.961Z,91.62
2023-07-29T08:47:02.212Z,91.51
2023-07-29T08:49:06.185Z,91.41
2023-07-29T08:51:10.687Z,91.32
2023-07-29T08:53:15.103Z,91.22
2023-07-29T08:55:18.449Z,90.89
2023-07-29T08:57:22.928Z,90.66
2023-07-29T08:59:26.694Z,90.52
2023-07-29T09:01:31.809Z,90.42
2023-07-29T09:03:35.238Z,90.07
2023-07-29T09:05:39.819Z,90.06
2023-07-29T09:07:44.489Z,89.58
2023-07-29T09:09:47.532Z,89.04
2023-07-29T09:11:50.926Z,88.57
2023-07-29T09:13:54.158Z,87.88
2023-07-29T09:15:59.172Z,87.18
2023-07-29T09:18:11.873Z,86.93
2023-07-29T09:20:15.105Z,86.62
2023-07-29T09:22:23.245Z,86.44
2023-07-29T09:24:26.500Z,86.18
2023-07-29T09:26:30.426Z,85.83
2023-07-29T09:28:36.266Z,85.86
2023-07-29T09:30:40.281Z,85.04
2023-07-29T09:32:43.781Z,84.79
2023-07-29T09:34:46.888Z,84.60
2023-07-29T09:36:52.980Z,84.51
2023-07-29T09:38:58.232Z,84.27
2023-07-29T09:41:01.248Z,84.01
2023-07-29T09:43:05.149Z,83.57
2023-07-29T09:45:08.956Z,82.82
2023-07-29T09:47:11.932Z,81.94
2023-07-29T09:49:14.952Z,81.61
2023-07-29T09:51:18.258Z,80.35
2023-07-29T09:53:20.453Z,79.40
2023-07-29T09:55:25.767Z,77.98
2023-07-29T09:57:29.200Z,77.91
2023-07-29T09:59:35.104Z,77.58
2023-07-29T10:01:39.427Z,77.52
2023-07-29T10:03:43.370Z,75.48
2023-07-29T10:05:47.579Z,74.44
2023-07-29T10:07:50.689Z,74.03
2023-07-29T10:09:54.845Z,74.08
2023-07-29T10:11:59.719Z,73.83
2023-07-29T10:14:08.652Z,73.57
2023-07-29T10:16:13.226Z,71.57
2023-07-29T10:18:17.633Z,70.25
2023-07-29T10:20:20.671Z,70.17
2023-07-29T10:22:25.803Z,68.62
2023-07-29T10:24:34.572Z,68.00
2023-07-29T10:26:43.656Z,66.73
2023-07-29T10:28:50.231Z,66.23
2023-07-29T10:30:54.174Z,66.36
2023-07-29T10:33:00.081Z,66.65
2023-07-29T10:35:03.203Z,65.42
2023-07-29T10:37:06.688Z,64.83
2023-07-29T10:39:11.876Z,65.06
2023-07-29T10:41:14.909Z,65.37
2023-07-29T10:43:22.101Z,65.50
2023-07-29T10:45:26.842Z,65.62
2023-07-29T10:47:31.136Z,65.51
2023-07-29T10:49:36.590Z,65.77
2023-07-29T10:51:40.081Z,65.81
2023-07-29T10:53:43.135Z,65.84
2023-07-29T10:55:46.312Z,65.65
2023-07-29T10:57:48.802Z,65.27
2023-07-29T10:59:57.209Z,64.90
2023-07-29T11:02:02.752Z,64.92
2023-07-29T11:04:25.583Z,64.83
2023-07-29T11:06:28.931Z,64.86
2023-07-29T11:08:34.940Z,64.48
2023-07-29T11:10:45.807Z,64.68
2023-07-29T11:12:52.133Z,64.85
2023-07-29T11:14:54.380Z,64.64
2023-07-29T11:16:57.757Z,64.69
2023-07-29T11:19:02.701Z,63.29
2023-07-29T11:21:06.553Z,62.59
2023-07-29T11:23:09.663Z,62.77
2023-07-29T11:25:14.372Z,63.06
2023-07-29T11:27:17.455Z,62.62
2023-07-29T11:29:20.549Z,61.76
2023-07-29T11:31:23.660Z,61.79
2023-07-29T11:33:29.601Z,60.78
2023-07-29T11:35:34.587Z,60.54
2023-07-29T11:37:37.435Z,61.13
2023-07-29T11:39:42.320Z,60.36
2023-07-29T11:41:45.401Z,59.11
2023-07-29T11:43:48.438Z,59.11
2023-07-29T11:45:52.416Z,58.79
2023-07-29T11:47:55.730Z,58.11
2023-07-29T11:50:01.653Z,58.00
2023-07-29T11:52:08.960Z,58.08
2023-07-29T11:54:12.439Z,57.61
2023-07-29T11:56:15.509Z,58.42
2023-07-29T11:58:17.686Z,56.90
2023-07-29T12:00:21.094Z,55.55
2023-07-29T12:02:26.176Z,55.91
2023-07-29T12:04:29.536Z,55.86
2023-07-29T12:06:32.886Z,56.64
2023-07-29T12:08:37.499Z,56.10
2023-07-29T12:10:40.895Z,55.33
2023-07-29T12:12:48.330Z,55.01
2023-07-29T12:14:51.507Z,54.92
2023-07-29T12:16:54.712Z,54.48
2023-07-29T12:18:57.755Z,54.30
2023-07-29T12:21:01.044Z,53.75
2023-07-29T12:23:06.902Z,52.82
2023-07-29T12:25:11.557Z,52.19
2023-07-29T12:27:16.638Z,52.10
2023-07-29T12:29:21.751Z,52.80
2023-07-29T12:31:32.341Z,52.22
2023-07-29T12:33:38.727Z,52.11
2023-07-29T12:35:42.137Z,51.98
2023-07-29T12:37:45.144Z,51.53
2023-07-29T12:39:52.260Z,50.78
2023-07-29T12:41:57.812Z,50.71
2023-07-29T12:43:59.810Z,50.06
2023-07-29T12:46:02.850Z,50.12
2023-07-29T12:48:06.088Z,49.68
2023-07-29T12:50:10.030Z,49.81
2023-07-29T12:52:13.093Z,49.93
2023-07-29T12:54:16.402Z,50.47
2023-07-29T12:56:19.450Z,50.04
2023-07-29T12:58:23.777Z,49.99
2023-07-29T13:00:27.470Z,49.96
2023-07-29T13:02:29.548Z,49.20
2023-07-29T13:04:32.689Z,49.70
2023-07-29T13:06:35.757Z,49.61
2023-07-29T13:08:38.975Z,50.21
2023-07-29T13:10:41.955Z,50.87
2023-07-29T13:12:44.984Z,51.32
2023-07-29T13:14:49.340Z,51.71
2023-07-29T13:16:52.418Z,51.52
2023-07-29T13:18:55.424Z,51.10
2023-07-29T13:20:58.464Z,50.42
2023-07-29T13:23:01.422Z,50.38
2023-07-29T13:25:04.786Z,50.12
2023-07-29T13:27:08.175Z,49.14
2023-07-29T13:29:11.331Z,48.12
2023-07-29T13:31:15.762Z,48.10
2023-07-29T13:33:18.960Z,48.47
2023-07-29T13:35:22.072Z,48.38
2023-07-29T13:37:25.024Z,48.75
2023-07-29T13:39:28.505Z,49.33
2023-07-29T13:41:31.525Z,48.97
2023-07-29T13:43:34.476Z,48.71
2023-07-29T13:45:37.556Z,48.36
2023-07-29T13:47:41.935Z,48.42
2023-07-29T13:49:44.896Z,48.96
2023-07-29T13:51:47.927Z,48.95
2023-07-29T13:53:50.921Z,48.82
2023-07-29T13:55:53.869Z,49.51
2023-07-29T13:57:56.906Z,49.79
2023-07-29T13:59:59.989Z,50.08
2023-07-29T14:02:02.949Z,49.87
2023-07-29T14:04:07.473Z,49.80
2023-07-29T14:06:10.490Z,48.99
2023-07-29T14:08:13.931Z,48.89
2023-07-29T14:10:17.085Z,49.20
2023-07-29T14:12:20.096Z,49.67
2023-07-29T14:14:23.371Z,49.91
2023-07-29T14:16:26.341Z,49.68
2023-07-29T14:18:29.332Z,49.75
2023-07-29T14:20:33.949Z,49.06
2023-07-29T14:22:37.777Z,48.46
2023-07-29T14:24:40.752Z,48.55
2023-07-29T14:26:43.803Z,48.14
2023-07-29T14:28:46.790Z,47.36
2023-07-29T14:30:49.767Z,46.92
2023-07-29T14:32:52.828Z,46.18
2023-07-29T14:34:55.844Z,45.53
2023-07-29T14:37:00.162Z,45.25
2023-07-29T14:39:03.217Z,44.91
2023-07-29T14:41:05.668Z,45.62
2023-07-29T14:43:08.692Z,45.96
2023-07-29T14:45:12.504Z,46.33
2023-07-29T14:47:15.678Z,46.48
2023-07-29T14:49:18.782Z,45.82
2023-07-29T14:51:21.846Z,46.19
2023-07-29T14:53:26.409Z,45.93
2023-07-29T14:55:29.486Z,46.49
2023-07-29T14:57:32.781Z,46.38
2023-07-29T14:59:36.024Z,45.75
2023-07-29T15:01:39.285Z,45.49
2023-07-29T15:03:44.967Z,45.94
2023-07-29T15:05:49.766Z,44.53
2023-07-29T15:07:52.928Z,43.66
2023-07-29T15:09:57.393Z,43.28
2023-07-29T15:12:00.682Z,42.62
2023-07-29T15:14:04.348Z,41.62
2023-07-29T15:16:08.684Z,41.31
2023-07-29T15:18:12.528Z,40.09
2023-07-29T15:20:16.779Z,40.10
2023-07-29T15:22:20.803Z,39.36
2023-07-29T15:24:22.803Z,39.11
2023-07-29T15:26:27.163Z,40.10
2023-07-29T15:28:30.164Z,39.68
2023-07-29T15:30:33.195Z,40.08
2023-07-29T15:32:36.240Z,39.39
2023-07-29T15:34:39.264Z,39.10
2023-07-29T15:36:42.246Z,39.41
2023-07-29T15:38:45.228Z,40.01
2023-07-29T15:40:50.069Z,38.87
2023-07-29T15:42:54.415Z,38.85
2023-07-29T15:44:57.433Z,39.15
2023-07-29T15:47:00.764Z,39.85
2023-07-29T15:49:03.758Z,40.68
2023-07-29T15:51:05.752Z,41.35
2023-07-29T15:53:08.737Z,42.22
2023-07-29T15:55:11.952Z,42.76
2023-07-29T15:57:14.915Z,43.31
2023-07-29T15:59:19.259Z,43.62
2023-07-29T16:01:23.162Z,44.57
2023-07-29T16:03:26.580Z,45.10
2023-07-29T16:05:29.783Z,46.01
2023-07-29T16:07:32.742Z,46.96
2023-07-29T16:09:35.737Z,47.97
2023-07-29T16:11:40.068Z,49.15
2023-07-29T16:13:43.867Z,50.14
2023-07-29T16:15:48.978Z,51.52
2023-07-29T16:17:54.421Z,53.02
2023-07-29T16:20:01.394Z,53.90
2023-07-29T16:22:05.259Z,56.14
2023-07-29T16:24:10.107Z,57.82
2023-07-29T16:26:14.693Z,59.55
2023-07-29T16:28:20.470Z,61.07
2023-07-29T16:30:24.546Z,61.89
2023-07-29T16:32:30.070Z,62.95
2023-07-29T16:34:34.102Z,63.91
2023-07-29T16:36:38.548Z,65.40
2023-07-29T16:38:43.011Z,66.02
2023-07-29T16:41:01.604Z,67.26
2023-07-29T16:43:10.939Z,67.95
2023-07-29T16:45:14.099Z,68.88
2023-07-29T16:47:18.423Z,69.12
2023-07-29T16:49:23.850Z,70.30
2023-07-29T16:51:30.321Z,70.38
2023-07-29T16:53:33.885Z,70.59
2023-07-29T16:55:36.856Z,70.83
2023-07-29T16:57:40.098Z,71.54
2023-07-29T16:59:43.081Z,71.98
2023-07-29T17:01:45.056Z,72.46
2023-07-29T17:03:48.087Z,72.43
2023-07-29T17:05:56.395Z,72.86
2023-07-29T17:07:59.391Z,73.38
2023-07-29T17:10:02.007Z,73.56
2023-07-29T17:12:05.852Z,73.54
2023-07-29T17:14:08.833Z,73.80
2023-07-29T17:16:11.805Z,74.03
2023-07-29T17:18:14.789Z,74.07
2023-07-29T17:20:19.043Z,74.58
2023-07-29T17:22:23.504Z,74.82
2023-07-29T17:24:26.516Z,75.07
2023-07-29T17:26:29.557Z,75.93
2023-07-29T17:28:32.616Z,75.92
2023-07-29T17:30:36.979Z,76.23
2023-07-29T17:32:39.995Z,76.87
2023-07-29T17:34:42.010Z,77.33
2023-07-29T17:36:44.984Z,77.59
2023-07-29T17:38:49.274Z,78.15
2023-07-29T17:40:53.480Z,78.76
2023-07-29T17:42:56.624Z,79.19
2023-07-29T17:44:59.611Z,79.16
2023-07-29T17:47:02.634Z,79.57
2023-07-29T17:49:05.752Z,79.75
2023-07-29T17:51:08.750Z,80.37
2023-07-29T17:53:11.724Z,80.49
2023-07-29T17:55:16.280Z,80.63
2023-07-29T17:57:19.242Z,80.95
2023-07-29T17:59:22.230Z,81.20
2023-07-29T18:01:25.419Z,81.21
2023-07-29T18:03:28.455Z,81.12
2023-07-29T18:05:31.577Z,81.69
2023-07-29T18:07:34.878Z,81.53
2023-07-29T18:09:38.224Z,81.43
2023-07-29T18:11:43.123Z,81.53
2023-07-29T18:13:46.468Z,81.71
2023-07-29T18:15:53.354Z,81.72
2023-07-29T18:17:56.535Z,81.93
2023-07-29T18:20:00.629Z,81.94
2023-07-29T18:22:03.751Z,82.17
2023-07-29T18:24:07.682Z,82.09
2023-07-29T18:31:45.448Z,82.95
2023-07-29T18:36:42.078Z,83.22
2023-07-29T18:38:47.755Z,83.67
2023-07-29T18:40:51.274Z,83.56
2023-07-29T18:42:54.886Z,84.15
2023-07-29T18:44:58.563Z,84.02
2023-07-29T18:47:03.653Z,84.18
2023-07-29T18:49:09.269Z,84.71
2023-07-29T18:51:13.266Z,84.61
2023-07-29T18:53:16.560Z,84.69
2023-07-29T18:55:20.036Z,84.67
2023-07-29T18:57:23.645Z,84.90
2023-07-29T18:59:26.671Z,84.95
2023-07-29T19:01:28.932Z,85.14
2023-07-29T19:03:33.443Z,85.21
2023-07-29T19:05:36.886Z,85.34
2023-07-29T19:07:40.216Z,85.62
2023-07-29T19:09:45.910Z,86.14
2023-07-29T19:11:54.462Z,86.11
2023-07-29T19:14:04.877Z,86.01
2023-07-29T19:16:12.430Z,86.16
2023-07-29T19:18:20.874Z,86.34
2023-07-29T19:20:26.852Z,86.43
2023-07-29T19:22:32.764Z,86.87
2023-07-29T19:24:37.077Z,87.09
2023-07-29T19:26:43.804Z,87.08
2023-07-29T19:28:53.982Z,87.06
2023-07-29T19:31:11.354Z,87.01
2023-07-29T19:33:27.180Z,87.34
2023-07-29T19:35:34.540Z,87.54
2023-07-29T19:37:41.447Z,87.63
2023-07-29T19:39:49.782Z,87.40
2023-07-29T19:41:54.261Z,87.67
2023-07-29T19:44:08.691Z,87.90
2023-07-29T19:46:38.445Z,88.03
2023-07-29T19:48:44.825Z,87.81
2023-07-29T19:50:52.871Z,87.88
2023-07-29T19:53:00.220Z,88.41
2023-07-29T19:55:04.754Z,88.39
2023-07-29T19:57:19.154Z,88.82
2023-07-29T19:59:28.471Z,89.05
2023-07-29T20:01:38.653Z,89.17
2023-07-29T20:03:44.682Z,89.02
2023-07-29T20:05:50.637Z,89.08
2023-07-29T20:07:55.042Z,88.85
2023-07-29T20:09:59.537Z,89.08
2023-07-29T20:12:03.808Z,89.19
2023-07-29T20:14:08.027Z,89.46
2023-07-29T20:16:12.149Z,89.19
2023-07-29T20:18:16.425Z,89.48
2023-07-29T20:20:23.509Z,89.77
2023-07-29T20:22:29.601Z,89.48
2023-07-29T20:24:35.616Z,89.28
2023-07-29T20:26:39.744Z,89.68
2023-07-29T20:28:43.110Z,89.60
2023-07-29T20:30:53.585Z,90.02
2023-07-29T20:32:57.631Z,90.02
2023-07-29T20:35:01.363Z,89.96
2023-07-29T20:37:05.491Z,89.90
2023-07-29T20:39:09.914Z,89.88
2023-07-29T20:41:16.970Z,89.96
2023-07-29T20:43:20.259Z,90.38
2023-07-29T20:45:26.364Z,90.54
2023-07-29T20:47:30.559Z,90.58
2023-07-29T20:49:34.558Z,90.53
2023-07-29T20:51:38.985Z,91.02
2023-07-29T20:53:44.922Z,91.34
2023-07-29T20:55:49.036Z,91.29
2023-07-29T20:57:56.626Z,91.13
2023-07-29T21:00:01.796Z,91.05
2023-07-29T21:02:07.380Z,91.43
2023-07-29T21:04:11.414Z,91.46
2023-07-29T21:06:15.550Z,91.90
2023-07-29T21:08:19.687Z,91.94
2023-07-29T21:10:23.948Z,92.00
2023-07-29T21:12:28.133Z,92.03
2023-07-29T21:14:33.641Z,92.42
2023-07-29T21:16:37.523Z,92.44
2023-07-29T21:18:41.617Z,92.80
2023-07-29T21:20:46.563Z,92.68
2023-07-29T21:22:50.681Z,93.29
2023-07-29T21:24:54.784Z,93.22
2023-07-29T21:26:59.195Z,93.22
2023-07-29T21:29:04.131Z,93.65
2023-07-29T21:31:10.283Z,93.72
2023-07-29T21:33:15.692Z,94.02
2023-07-29T21:35:19.933Z,94.00
2023-07-29T21:37:35.864Z,93.78
2023-07-29T21:39:41.318Z,94.01
2023-07-29T21:41:46.732Z,93.86
2023-07-29T21:43:49.602Z,94.09
2023-07-29T21:45:53.937Z,93.82
2023-07-29T21:47:59.813Z,94.24
2023-07-29T21:50:05.281Z,94.03
2023-07-29T21:52:09.625Z,94.20
2023-07-29T21:54:13.528Z,94.44
2023-07-29T21:56:17.922Z,94.44
2023-07-29T21:58:22.283Z,94.26
2023-07-29T22:00:26.785Z,94.35
2023-07-29T22:02:31.258Z,94.44
2023-07-29T22:04:36.965Z,94.59
2023-07-29T22:06:40.806Z,94.39
2023-07-29T22:08:44.934Z,94.34
2023-07-29T22:10:48.660Z,94.52
2023-07-29T22:12:52.517Z,94.38
2023-07-29T22:14:56.510Z,94.42
2023-07-29T22:17:00.631Z,94.51
2023-07-29T22:19:04.774Z,94.51
2023-07-29T22:21:09.888Z,94.54
2023-07-29T22:23:14.265Z,94.68
2023-07-29T22:25:18.179Z,95.09
2023-07-29T22:27:25.425Z,94.89
2023-07-29T22:29:29.530Z,94.76
2023-07-29T22:31:33.662Z,95.18
2023-07-29T22:33:37.876Z,95.02
2023-07-29T22:35:43.007Z,95.23
2023-07-29T22:37:48.572Z,95.26
2023-07-29T22:39:53.640Z,95.38
2023-07-29T22:41:57.920Z,95.31
2023-07-29T22:44:01.824Z,95.24
2023-07-29T22:46:06.159Z,95.31
2023-07-29T22:48:10.461Z,95.30
2023-07-29T22:50:17.642Z,95.65
2023-07-29T22:52:21.210Z,95.74
2023-07-29T22:54:27.187Z,95.58
2023-07-29T22:56:32.423Z,95.71
2023-07-29T22:58:36.444Z,95.22
2023-07-29T23:00:40.602Z,95.46
2023-07-29T23:02:44.673Z,95.45
2023-07-29T23:04:49.020Z,95.52
2023-07-29T23:06:56.377Z,95.49
2023-07-29T23:09:01.607Z,95.73
2023-07-29T23:11:10.007Z,95.37
2023-07-29T23:13:12.839Z,95.90
2023-07-29T23:15:18.686Z,95.50
2023-07-29T23:17:23.093Z,95.55
2023-07-29T23:19:27.821Z,95.64
2023-07-29T23:21:32.088Z,95.39
2023-07-29T23:23:36.763Z,95.58
2023-07-29T23:25:40.979Z,95.83
2023-07-29T23:27:46.395Z,95.67
2023-07-29T23:29:50.805Z,95.53
2023-07-29T23:31:56.850Z,95.42
2023-07-29T23:34:01.082Z,95.48
2023-07-29T23:36:05.613Z,95.61
2023-07-29T23:38:09.421Z,95.67
2023-07-29T23:40:12.420Z,95.58
2023-07-29T23:42:16.115Z,95.69
2023-07-29T23:44:21.553Z,95.62
2023-07-29T23:46:28.344Z,95.65
2023-07-29T23:48:32.203Z,95.81
2023-07-29T23:50:37.615Z,95.69
2023-07-29T23:52:41.451Z,95.45
2023-07-29T23:54:45.206Z,95.86
2023-07-29T23:56:48.254Z,95.88
2023-07-29T23:58:53.153Z,95.90
